Flight Track Log - Related Links

Times and Time Zones

All times are in EDT time to prevent confusion due to time zone crossing. See the EJA312 flight status page for this flight to view local times or setup timezone preferences in your user account.

Time Position Orientation Groundspeed Altitude Reporting Facility
EDT Latitude Longitude Course Direction KTS MPH feet Rate Location/Type
Thu 12:02:53 PM 46.1000 -64.7167 231° Southwest 150 173 2,000  Level Moncton Center
Thu 12:03:53 PM 46.0833 -64.7833 250° West 190 219 5,300 3,650 Climbing Moncton Center
Thu 12:04:53 PM 46.0500 -64.8500 234° Southwest 220 253 9,300 3,450 Climbing Moncton Center
Thu 12:05:53 PM 46.0000 -64.9333 229° Southwest 240 276 12,200 2,837 Climbing Moncton Center
Thu 12:08:00 PM 45.9238 -65.3801 231° Southwest  Level Estimated
Thu 12:11:20 PM 45.7569 -65.3262 229° Southwest 297 342 27,600  Level FlightAware ADS-B
Thu 12:12:05 PM 45.6539 -65.4879 228° Southwest 299 344 29,100 1,778 Climbing FlightAware ADS-B
Thu 12:12:41 PM 45.6138 -65.5505 228° Southwest 303 349 30,000 1,200 Climbing FlightAware ADS-B
Thu 12:13:15 PM 45.5838 -65.5972 227° Southwest 316 364 30,500 1,075 Climbing FlightAware ADS-B
Thu 12:13:48 PM 45.5475 -65.6536 227° Southwest 315 362 31,200 1,385 Climbing FlightAware ADS-B
Thu 12:14:20 PM 45.5162 -65.7024 228° Southwest 311 358 32,000 1,317 Climbing FlightAware ADS-B
Thu 12:15:10 PM 45.4682 -65.7768 227° Southwest 311 358 33,000 659 Climbing FlightAware ADS-B
Thu 12:15:51 PM 45.4269 -65.8407 227° Southwest 328 377 33,000  Level FlightAware ADS-B
Thu 12:16:25 PM 45.3951 -65.9014 233° Southwest 338 389 33,000  Level FlightAware ADS-B
Thu 12:16:56 PM 45.3740 -65.9582 242° Southwest 345 397 33,000  Level FlightAware ADS-B
Thu 12:17:30 PM 45.3464 -66.0292 241° Southwest 351 404 33,000  Level FlightAware ADS-B
Thu 12:18:01 PM 45.3249 -66.0846 241° Southwest 352 405 33,000 686 Level FlightAware ADS-B
Thu 12:18:40 PM 45.2915 -66.1708 241° Southwest 333 383 33,800 1,333 Climbing FlightAware ADS-B
Thu 12:19:22 PM 45.2623 -66.2464 241° Southwest 314 361 34,800 1,333 Climbing FlightAware ADS-B
Thu 12:20:01 PM 45.2349 -66.3166 241° Southwest 300 345 35,600 1,183 Climbing FlightAware ADS-B
Thu 12:20:33 PM 45.2141 -66.3700 241° Southwest 289 333 36,200 1,098 Climbing FlightAware ADS-B
Thu 12:21:23 PM 45.1859 -66.4423 241° Southwest 277 319 37,100 1,037 Climbing FlightAware ADS-B
Thu 12:21:54 PM 45.1637 -66.4989 241° Southwest 269 310 37,600 984 Climbing FlightAware ADS-B
Thu 12:22:24 PM 45.1452 -66.5460 241° Southwest 263 303 38,100 845 Climbing FlightAware ADS-B
Thu 12:23:05 PM 45.1212 -66.6068 241° Southwest 261 300 38,600 560 Climbing FlightAware ADS-B
Thu 12:23:39 PM 45.1014 -66.6570 241° Southwest 266 306 38,800 469 Climbing FlightAware ADS-B
Thu 12:24:09 PM 45.0835 -66.7026 241° Southwest 264 304 39,100 696 Climbing FlightAware ADS-B
Thu 12:24:48 PM 45.0652 -66.7659 248° West 262 302 39,600 314 Climbing FlightAware ADS-B
Thu 12:27:01 PM 45.3061 -66.1334 61° Northeast 343 395 40,000 86 Climbing FlightAware ADS-B
Thu 12:29:28 PM 44.9305 -67.2312 245° Southwest 285 328 40,000  Level FlightAware ADS-B
Thu 12:30:06 PM 44.9107 -67.2985 248° West 297 342 40,000  Level FlightAware ADS-B
Thu 12:30:39 PM 44.8931 -67.3586 248° West 303 349 40,000  Level FlightAware ADS-B
Thu 12:31:05 PM 44.8842 -67.3887 247° West 309 356 40,000  Level FlightAware ADS-B
Thu 12:31:43 PM 44.8584 -67.4764 247° West 313 360 40,000  Level FlightAware ADS-B
Thu 12:32:15 PM 44.8407 -67.5364 247° West 314 361 40,000  Level FlightAware ADS-B
Thu 12:32:45 PM 44.8237 -67.5939 247° West 313 360 40,000  Level FlightAware ADS-B
Thu 12:33:25 PM 44.8027 -67.6647 247° West 313 360 40,000  Level FlightAware ADS-B
Thu 12:33:56 PM 44.7858 -67.7217 247° West 313 360 40,000  Level FlightAware ADS-B
Thu 12:34:26 PM 44.7673 -67.7837 247° West 313 360 40,000  Level FlightAware ADS-B
Thu 12:34:57 PM 44.7506 -67.8395 247° West 311 358 40,000  Level FlightAware ADS-B
Thu 12:35:28 PM 44.7343 -67.8942 247° West 311 358 40,000  Level FlightAware ADS-B
Thu 12:35:58 PM 44.7164 -67.9538 247° West 311 358 40,000  Level FlightAware ADS-B
Thu 12:36:28 PM 44.6992 -68.0107 247° West 312 359 40,000  Level FlightAware ADS-B
Thu 12:36:59 PM 44.6819 -68.0680 247° West 314 361 40,000  Level FlightAware ADS-B
Thu 12:37:11 PM 44.6749 -68.0910 247° West 311 358 40,000  Level FlightAware ADS-B
Thu 12:37:41 PM 44.6576 -68.1483 247° West 314 361 40,000  Level FlightAware ADS-B
Thu 12:37:54 PM 44.6506 -68.1716 247° West 312 359 40,000  Level FlightAware ADS-B
Thu 12:38:24 PM 44.6335 -68.2280 247° West 313 360 40,000  Level FlightAware ADS-B
Thu 12:38:33 PM 44.6281 -68.2456 247° West 310 357 40,000  Level FlightAware ADS-B
Thu 12:38:36 PM 44.6265 -68.2511 247° West 310 357 40,000  Level FlightAware ADS-B
Thu 12:39:13 PM 44.6054 -68.3200 247° West 314 361 40,000  Level FlightAware ADS-B
Thu 12:39:23 PM 44.5999 -68.3382 247° West 312 359 40,000  Level FlightAware ADS-B
Thu 12:39:29 PM 44.5963 -68.3499 247° West 313 360 40,000  Level FlightAware ADS-B
Thu 12:39:50 PM 44.5843 -68.3892 247° West 317 365 40,000  Level FlightAware ADS-B
Thu 12:40:02 PM 44.5771 -68.4127 247° West 318 366 40,000  Level FlightAware ADS-B
Thu 12:40:15 PM 44.5696 -68.4373 247° West 316 364 40,000  Level FlightAware ADS-B
Thu 12:40:32 PM 44.5598 -68.4691 247° West 317 365 40,000  Level FlightAware ADS-B
Thu 12:41:04 PM 44.5416 -68.5285 247° West 318 366 40,000  Level FlightAware ADS-B
Thu 12:41:36 PM 44.5253 -68.5816 247° West 317 365 40,000  Level FlightAware ADS-B
Thu 12:42:06 PM 44.5067 -68.6418 247° West 319 367 40,000  Level FlightAware ADS-B
Thu 12:42:17 PM 44.4984 -68.6686 247° West 316 364 40,000  Level FlightAware ADS-B
Thu 12:42:52 PM 44.4792 -68.7306 247° West 320 368 40,000  Level FlightAware ADS-B
Thu 12:43:25 PM 44.4587 -68.7965 246° West 321 369 40,000  Level FlightAware ADS-B
Thu 12:43:55 PM 44.4420 -68.8502 246° West 324 373 40,000  Level FlightAware ADS-B
Thu 12:44:25 PM 44.4231 -68.9111 246° West 323 372 40,000  Level FlightAware ADS-B
Thu 12:44:55 PM 44.4053 -68.9680 246° West 324 373 40,000  Level FlightAware ADS-B
Thu 12:45:16 PM 44.3923 -69.0098 246° West 324 373 40,000  Level FlightAware ADS-B
Thu 12:45:47 PM 44.3736 -69.0692 246° West 324 373 40,000  Level FlightAware ADS-B
Thu 12:46:21 PM 44.3529 -69.1350 246° West 326 375 40,000  Level FlightAware ADS-B
Thu 12:46:53 PM 44.3336 -69.1963 246° West 327 376 40,000  Level FlightAware ADS-B
Thu 12:47:27 PM 44.3127 -69.2609 246° West 328 377 40,000  Level FlightAware ADS-B
Thu 12:47:36 PM 44.3065 -69.2796 245° Southwest 325 374 40,000  Level FlightAware ADS-B
Thu 12:48:19 PM 44.2792 -69.3610 245° Southwest 328 377 40,000  Level FlightAware ADS-B
Thu 12:49:11 PM 44.2488 -69.4520 245° Southwest 330 380 40,000  Level FlightAware ADS-B
Thu 12:49:35 PM 44.2302 -69.5073 245° Southwest 330 380 40,000  Level FlightAware ADS-B
Thu 12:50:12 PM 44.2067 -69.5772 245° Southwest 330 380 40,000  Level FlightAware ADS-B
Thu 12:50:52 PM 44.1808 -69.6544 245° Southwest 330 380 40,000  Level FlightAware ADS-B
Thu 12:51:25 PM 44.1605 -69.7146 245° Southwest 332 382 40,000  Level FlightAware ADS-B
Thu 12:51:56 PM 44.1414 -69.7710 245° Southwest 332 382 40,000  Level FlightAware ADS-B
Thu 12:52:29 PM 44.1323 -69.7977 245° Southwest 334 384 40,000  Level FlightAware ADS-B
Thu 12:53:15 PM 44.0864 -69.9329 245° Southwest 336 387 40,000  Level FlightAware ADS-B
Thu 12:53:45 PM 44.0668 -69.9908 245° Southwest 337 388 40,000  Level FlightAware ADS-B
Thu 12:54:20 PM 44.0546 -70.0262 245° Southwest 335 386 40,000  Level FlightAware ADS-B
Thu 12:55:02 PM 44.0155 -70.1402 245° Southwest 336 387 40,000  Level FlightAware ADS-B
Thu 12:55:34 PM 43.9946 -70.2013 244° Southwest 333 383 40,000  Level FlightAware ADS-B
Thu 12:56:04 PM 43.9738 -70.2614 244° Southwest 335 386 40,000  Level FlightAware ADS-B
Thu 12:56:35 PM 43.9539 -70.3191 244° Southwest 337 388 40,000  Level FlightAware ADS-B
Thu 12:57:11 PM 43.9293 -70.3906 244° Southwest 332 382 40,000  Level FlightAware ADS-B (KBKF)
Thu 12:57:45 PM 43.9067 -70.4556 244° Southwest 331 381 40,000  Level FlightAware ADS-B
Thu 12:58:02 PM 43.8960 -70.4865 244° Southwest 325 374 40,000  Level FlightAware ADS-B
Thu 12:58:34 PM 43.8748 -70.5474 244° Southwest 326 375 40,000  Level FlightAware ADS-B
Thu 12:59:11 PM 43.8504 -70.6172 244° Southwest 330 380 40,000  Level FlightAware ADS-B
Thu 12:59:42 PM 43.8340 -70.6642 244° Southwest 329 379 40,000  Level FlightAware ADS-B
Thu 01:00:13 PM 43.8089 -70.7356 244° Southwest 331 381 40,000  Level FlightAware ADS-B
Thu 01:00:45 PM 43.7876 -70.7963 244° Southwest 332 382 40,000  Level FlightAware ADS-B
Thu 01:01:24 PM 43.7609 -70.8723 244° Southwest 337 388 40,000  Level FlightAware ADS-B
Thu 01:02:05 PM 43.7329 -70.9517 244° Southwest 333 383 40,000  Level FlightAware ADS-B
Thu 01:02:35 PM 43.7127 -71.0086 244° Southwest 335 386 40,000  Level FlightAware ADS-B
Thu 01:03:10 PM 43.6971 -71.0529 244° Southwest 336 387 40,000  Level FlightAware ADS-B
Thu 01:03:48 PM 43.6685 -71.1330 244° Southwest 335 386 40,000  Level FlightAware ADS-B (KBKF)
Thu 01:04:24 PM 43.6384 -71.2176 244° Southwest 339 390 40,000  Level FlightAware ADS-B
Thu 01:04:54 PM 43.6174 -71.2764 244° Southwest 341 392 40,000  Level FlightAware ADS-B
Thu 01:05:02 PM 43.6121 -71.2911 244° Southwest 341 392 40,000  Level FlightAware ADS-B (SBBR / BSB)
Thu 01:05:13 PM 43.6043 -71.3129 244° Southwest 341 392 40,000  Level FlightAware ADS-B (SBBR / BSB)
Thu 01:05:45 PM 43.5819 -71.3753 244° Southwest 339 390 40,000  Level FlightAware ADS-B
Thu 01:06:15 PM 43.5606 -71.4348 244° Southwest 340 391 40,000  Level FlightAware ADS-B
Thu 01:06:28 PM 43.5512 -71.4607 244° Southwest 344 396 40,000  Level FlightAware ADS-B (SBBR / BSB)
Thu 01:06:44 PM 43.5403 -71.4910 244° Southwest 339 390 40,000  Level FlightAware ADS-B
Thu 01:06:54 PM 43.5328 -71.5117 244° Southwest 339 390 40,000  Level FlightAware ADS-B
Thu 01:07:05 PM 43.5255 -71.5322 244° Southwest 338 389 40,000  Level FlightAware ADS-B
Thu 01:07:14 PM 43.5187 -71.5509 243° Southwest 338 389 40,000  Level FlightAware ADS-B
Thu 01:07:25 PM 43.5110 -71.5721 244° Southwest 339 390 40,000  Level FlightAware ADS-B
Thu 01:07:35 PM 43.5141 -71.5635 64° Northeast 342 394 40,000  Level FlightAware ADS-B (SBBR / BSB)
Thu 01:08:05 PM 43.4830 -71.6495 244° Southwest 338 389 40,000  Level FlightAware ADS-B
Thu 01:08:35 PM 43.4620 -71.7075 243° Southwest 337 388 40,000  Level FlightAware ADS-B
Thu 01:09:05 PM 43.4408 -71.7658 243° Southwest 337 388 40,000  Level FlightAware ADS-B
Thu 01:09:35 PM 43.4193 -71.8245 243° Southwest 338 389 40,000  Level FlightAware ADS-B
Thu 01:09:41 PM 43.4136 -71.8400 243° Southwest 338 389 40,000  Level FlightAware ADS-B (SBBR / BSB)
Thu 01:10:07 PM 43.3965 -71.8870 243° Southwest 341 392 40,000  Level FlightAware ADS-B (KSNC)
Thu 01:10:42 PM 43.3719 -71.9541 243° Southwest 340 391 40,000  Level FlightAware ADS-B (KSNC)
Thu 01:11:07 PM 43.3544 -72.0019 243° Southwest 338 389 40,000  Level FlightAware ADS-B
Thu 01:11:14 PM 43.3497 -72.0147 243° Southwest 338 389 40,000  Level FlightAware ADS-B
Thu 01:11:46 PM 43.3270 -72.0763 243° Southwest 335 386 40,000  Level FlightAware ADS-B
Thu 01:12:16 PM 43.3056 -72.1343 243° Southwest 336 387 40,000  Level FlightAware ADS-B
Thu 01:12:46 PM 43.2844 -72.1919 243° Southwest 337 388 40,000  Level FlightAware ADS-B
Thu 01:13:04 PM 43.2720 -72.2254 243° Southwest 337 388 40,000  Level FlightAware ADS-B
Thu 01:13:24 PM 43.2573 -72.2651 243° Southwest 336 387 40,000  Level FlightAware ADS-B
Thu 01:13:45 PM 43.2426 -72.3049 243° Southwest 340 391 40,000  Level FlightAware ADS-B (SBBR / BSB)
Thu 01:13:56 PM 43.2348 -72.3258 243° Southwest 337 388 40,000  Level FlightAware ADS-B
Thu 01:14:06 PM 43.2276 -72.3451 243° Southwest 337 388 40,000  Level FlightAware ADS-B
Thu 01:14:12 PM 43.2234 -72.3564 243° Southwest 341 392 40,000  Level FlightAware ADS-B (KSNC)
Thu 01:14:46 PM 43.1993 -72.4212 243° Southwest 337 388 40,000  Level FlightAware ADS-B
Thu 01:15:13 PM 43.6910 -71.0710 63° Northeast 337 388 40,000  Level FlightAware ADS-B
Thu 01:15:23 PM 43.1723 -72.4936 244° Southwest 338 389 40,000  Level FlightAware ADS-B
Thu 01:15:26 PM 43.1752 -72.4857 63° Northeast 341 392 40,000  Level FlightAware ADS-B (KSNC)
Thu 01:15:44 PM 43.6900 -71.0740 63° Northeast 337 388 40,000  Level FlightAware ADS-B
Thu 01:15:57 PM 43.1482 -72.5578 244° Southwest 335 386 40,000  Level FlightAware ADS-B
Thu 01:16:08 PM 43.1400 -72.5797 243° Southwest 340 391 40,000  Level FlightAware ADS-B (KSNC)
Thu 01:16:21 PM 43.1322 -72.6005 243° Southwest 340 391 40,000  Level FlightAware ADS-B (KSNC)
Thu 01:16:55 PM 43.1066 -72.6685 243° Southwest 337 388 40,000  Level FlightAware ADS-B (SBBR / BSB)
Thu 01:17:13 PM 43.0938 -72.7026 243° Southwest 330 380 40,000  Level FlightAware ADS-B
Thu 01:17:18 PM 43.0904 -72.7115 243° Southwest 330 380 40,000  Level FlightAware ADS-B
Thu 01:18:04 PM 43.0580 -72.7974 243° Southwest 333 383 40,000  Level FlightAware ADS-B (SBBR / BSB)
Thu 01:19:00 PM 43.0309 -72.8691 243° Southwest 333 383 40,000  Level FlightAware ADS-B (SBBR / BSB)
Thu 01:19:32 PM 42.9955 -72.9622 243° Southwest 332 382 40,000  Level FlightAware ADS-B (SBBR / BSB)
Thu 01:20:14 PM 42.9955 -72.9622 243° Southwest 329 379 40,000  Level FlightAware ADS-B (SBBR / BSB)
Thu 01:21:00 PM 42.9411 -73.1051 243° Southwest 331 381 40,000  Level FlightAware ADS-B (SBBR / BSB)
Thu 01:21:32 PM 42.9133 -73.1780 243° Southwest 329 379 40,000  Level FlightAware ADS-B (SBBR / BSB)
Thu 01:22:05 PM 42.8878 -73.2445 242° Southwest 329 379 40,000  Level FlightAware ADS-B (SBBR / BSB)
Thu 01:22:43 PM 42.8761 -73.2749 242° Southwest 331 381 40,000  Level FlightAware ADS-B (SBBR / BSB)
Thu 01:23:37 PM 42.8223 -73.4146 242° Southwest 333 383 40,000  Level FlightAware ADS-B (SBBR / BSB)
Thu 01:24:37 PM 42.8223 -73.4146 242° Southwest 335 386 40,000  Level FlightAware ADS-B (SBBR / BSB)
Thu 01:25:33 PM 42.7385 -73.6310 242° Southwest 335 386 40,000  Level FlightAware ADS-B (SBBR / BSB)
Thu 01:26:34 PM 42.6945 -73.7437 242° Southwest 338 389 40,000  Level FlightAware ADS-B (KSNC)
Thu 01:27:20 PM 42.6598 -73.8321 242° Southwest 341 392 40,000  Level FlightAware ADS-B (SBBR / BSB)
Thu 01:29:02 PM 42.5842 -74.0244 242° Southwest 342 394 40,000  Level FlightAware ADS-B (SBBR / BSB)
Thu 01:29:46 PM 42.5507 -74.1091 242° Southwest 339 390 40,000  Level FlightAware ADS-B (SBBR / BSB)
Thu 01:30:24 PM 42.5237 -74.1776 242° Southwest 336 387 40,000  Level FlightAware ADS-B (KSNC)
Thu 01:31:09 PM 42.4942 -74.2522 242° Southwest 337 388 40,000  Level Boston Center
Thu 01:32:12 PM 42.4506 -74.3611 242° Southwest 332 382 40,000  Level Boston Center
Thu 01:33:12 PM 42.4100 -74.4622 242° Southwest 333 383 40,000 -149 Level Boston Center
Thu 01:34:13 PM 42.3572 -74.5961 242° Southwest 336 387 39,700 -1,008 Descending Boston Center
Thu 01:35:17 PM 42.3125 -74.7072 241° Southwest 336 387 37,900 -1,728 Descending Boston Center
Thu 01:36:18 PM 42.2664 -74.8186 241° Southwest 339 390 36,100 -1,820 Descending Boston Center
Thu 01:37:19 PM 42.2192 -74.9356 241° Southwest 350 403 34,200 -1,884 Descending Boston Center
Thu 01:38:19 PM 42.1722 -75.0522 242° Southwest 354 407 32,300 -1,884 Descending Boston Center
Thu 01:39:20 PM 42.1247 -75.1719 242° Southwest 359 413 30,400 -1,839 Descending Boston Center
Thu 01:40:23 PM 42.0758 -75.2894 241° Southwest 359 413 28,500 -1,210 Descending Boston Center
Thu 01:41:19 PM 42.0506 -75.4322 257° West 358 412 28,000 -259 Descending New York Center
Thu 01:42:19 PM 42.0303 -75.5706 259° West 371 427 28,000  Level New York Center
Thu 01:43:19 PM 42.0122 -75.7086 260° West 376 433 28,000  Level New York Center
Thu 01:44:19 PM 41.9939 -75.8467 260° West 383 441 28,000  Level New York Center
Thu 01:45:19 PM 41.9753 -75.9878 260° West 389 448 28,000  Level New York Center
Thu 01:46:19 PM 41.9572 -76.1144 259° West 389 448 28,000  Level New York Center
Thu 01:47:19 PM 41.9383 -76.2553 260° West 389 448 28,000  Level New York Center
Thu 01:48:19 PM 41.9186 -76.4069 260° West 384 442 28,000  Level New York Center
Thu 01:49:19 PM 41.9014 -76.5503 261° West 389 448 28,000 -271 Level New York Center
Thu 01:51:38 PM 41.8586 -76.8558 259° West 389 448 27,100 -724 Descending Boston Center
Thu 01:52:38 PM 41.8389 -76.9989 260° West 390 449 25,600 -1,378 Descending Boston Center
Thu 01:53:53 PM 41.7925 -77.1925 252° West 390 449 24,000 -696 Descending Cleveland Center
Thu 01:54:56 PM 41.7475 -77.3256 246° West 389 448 24,000  Level Cleveland Center
Thu 01:55:58 PM 41.7025 -77.4542 245° Southwest 385 443 24,000  Level Cleveland Center
Thu 01:57:00 PM 41.6550 -77.5861 244° Southwest 384 442 24,000  Level Cleveland Center
Thu 01:58:02 PM 41.6100 -77.7119 244° Southwest 379 436 24,000 -435 Level Cleveland Center
Thu 01:59:04 PM 41.5647 -77.8414 245° Southwest 388 447 23,100 -968 Descending Cleveland Center
Thu 02:00:06 PM 41.5086 -78.0022 245° Southwest 400 460 22,000 -532 Descending Cleveland Center
Thu 02:01:08 PM 41.4611 -78.1311 244° Southwest 393 452 22,000  Level Cleveland Center
Thu 02:02:10 PM 41.4156 -78.2583 245° Southwest 386 444 22,000  Level Cleveland Center
Thu 02:03:12 PM 41.3647 -78.3992 244° Southwest 390 449 22,000  Level Cleveland Center
Thu 02:04:14 PM 41.3222 -78.5242 246° West 378 435 22,000  Level Cleveland Center
Thu 02:05:17 PM 41.2764 -78.6503 244° Southwest 388 447 22,000  Level Cleveland Center
Thu 02:06:19 PM 41.2311 -78.7750 244° Southwest 386 444 22,000  Level Cleveland Center
Thu 02:07:18 PM 41.1953 -78.8800 246° West 402 463 22,000  Level Cleveland Center
Thu 02:08:23 PM 41.1328 -79.0506 244° Southwest 377 434 22,000 -992 Level Cleveland Center
Thu 02:09:25 PM 41.0819 -79.1858 244° Southwest 418 481 19,900 -1,984 Descending Cleveland Center
Thu 02:10:27 PM 41.0378 -79.3094 245° Southwest 383 441 17,900 -1,887 Descending Cleveland Center
Thu 02:11:29 PM 40.9922 -79.4306 244° Southwest 371 427 16,000 -1,839 Descending Cleveland Center
Thu 02:12:31 PM 40.9486 -79.5517 245° Southwest 368 423 14,100 -1,887 Descending Cleveland Center
Thu 02:13:33 PM 40.9033 -79.6722 244° Southwest 351 404 12,100 -1,887 Descending Cleveland Center
Thu 02:14:35 PM 40.8581 -79.7933 244° Southwest 330 380 10,200 -1,016 Descending Cleveland Center
Thu 02:15:37 PM 40.7794 -79.8533 210° Southwest 324 373 10,000 -1,022 Descending Cleveland Center
Thu 02:19:58 PM 40.4449 -80.0331 210° Southwest 248 285 4,700 -1,302 Descending FlightAware ADS-B
Thu 02:20:18 PM 40.4365 -80.0509 238° Southwest 250 288 3,900 -2,093 Descending FlightAware ADS-B
Thu 02:20:41 PM 40.4258 -80.0914 251° West 229 264 3,200 -1,714 Descending FlightAware ADS-B
Thu 02:21:07 PM 40.4295 -80.1218 279° West 176 203 2,500 -1,119 Descending FlightAware ADS-B
Thu 02:21:40 PM 40.4426 -80.1492 302° West 147 169 2,100 -612 Descending FlightAware ADS-B
Thu 02:21:56 PM 40.4483 -80.1591 307° West 120 138 2,000  Descending FlightAware ADS-B
Thu 02:22:52 PM 40.4439 -80.1561 307° West 187 215 2,100 -254 Climbing Cleveland Center
Thu 02:23:54 PM 40.4664 -80.1872 314° West 144 166 1,500 -581 Descending Cleveland Center
Thu 02:25:00 PM 40.4833 -80.2167 270° West  Level FlightAware Approximate
Thu 02:32:00 PM 40.4914 -80.2327 270° West  Level Estimated

Login

Don't have an account? Register now (free) for customized features, flight alerts, and more!